sensor_id;sensor_type;location;lat;lon;timestamp;temperature;humidity
14411;DHT22;7290;50.854;4.354;2022-07-23T00:00:57;19.70;99.90
14411;DHT22;7290;50.854;4.354;2022-07-23T00:03:24;19.70;99.90
14411;DHT22;7290;50.854;4.354;2022-07-23T00:05:50;19.80;99.90
14411;DHT22;7290;50.854;4.354;2022-07-23T00:08:16;19.70;99.90
14411;DHT22;7290;50.854;4.354;2022-07-23T00:10:42;19.60;99.90
14411;DHT22;7290;50.854;4.354;2022-07-23T00:13:08;19.60;99.90
14411;DHT22;7290;50.854;4.354;2022-07-23T00:15:34;19.60;99.90
14411;DHT22;7290;50.854;4.354;2022-07-23T00:18:00;19.60;99.90
14411;DHT22;7290;50.854;4.354;2022-07-23T00:20:27;19.60;99.90
14411;DHT22;7290;50.854;4.354;2022-07-23T00:22:54;19.60;99.90
14411;DHT22;7290;50.854;4.354;2022-07-23T00:25:20;19.60;99.90
14411;DHT22;7290;50.854;4.354;2022-07-23T00:27:47;19.50;99.90
14411;DHT22;7290;50.854;4.354;2022-07-23T00:30:13;19.50;99.90
14411;DHT22;7290;50.854;4.354;2022-07-23T00:32:46;19.50;99.90
14411;DHT22;7290;50.854;4.354;2022-07-23T00:35:12;19.50;99.90
14411;DHT22;7290;50.854;4.354;2022-07-23T00:37:39;19.40;99.90
14411;DHT22;7290;50.854;4.354;2022-07-23T00:40:05;19.40;99.90
14411;DHT22;7290;50.854;4.354;2022-07-23T00:42:31;19.40;99.90
14411;DHT22;7290;50.854;4.354;2022-07-23T00:44:57;19.40;99.90
14411;DHT22;7290;50.854;4.354;2022-07-23T00:47:24;19.40;99.90
14411;DHT22;7290;50.854;4.354;2022-07-23T00:49:50;19.20;99.90
14411;DHT22;7290;50.854;4.354;2022-07-23T00:52:16;19.20;99.90
14411;DHT22;7290;50.854;4.354;2022-07-23T00:54:42;19.10;99.90
14411;DHT22;7290;50.854;4.354;2022-07-23T00:57:08;18.90;99.90
14411;DHT22;7290;50.854;4.354;2022-07-23T00:59:35;18.80;99.90
14411;DHT22;7290;50.854;4.354;2022-07-23T01:02:01;18.90;99.90
14411;DHT22;7290;50.854;4.354;2022-07-23T01:04:27;18.90;99.90
14411;DHT22;7290;50.854;4.354;2022-07-23T01:06:54;19.00;99.90
14411;DHT22;7290;50.854;4.354;2022-07-23T01:09:20;19.10;99.90
14411;DHT22;7290;50.854;4.354;2022-07-23T01:11:47;19.20;99.90
14411;DHT22;7290;50.854;4.354;2022-07-23T01:14:14;19.10;99.90
14411;DHT22;7290;50.854;4.354;2022-07-23T01:16:41;19.20;99.90
14411;DHT22;7290;50.854;4.354;2022-07-23T01:19:07;19.20;99.90
14411;DHT22;7290;50.854;4.354;2022-07-23T01:21:34;19.20;99.90
14411;DHT22;7290;50.854;4.354;2022-07-23T01:24:02;19.00;99.90
14411;DHT22;7290;50.854;4.354;2022-07-23T01:26:29;18.90;99.90
14411;DHT22;7290;50.854;4.354;2022-07-23T01:28:55;19.00;99.90
14411;DHT22;7290;50.854;4.354;2022-07-23T01:31:21;19.10;99.90
14411;DHT22;7290;50.854;4.354;2022-07-23T01:33:47;18.80;99.90
14411;DHT22;7290;50.854;4.354;2022-07-23T01:36:13;18.90;99.90
14411;DHT22;7290;50.854;4.354;2022-07-23T01:38:40;18.90;99.90
14411;DHT22;7290;50.854;4.354;2022-07-23T01:41:06;19.00;99.90
14411;DHT22;7290;50.854;4.354;2022-07-23T01:43:32;19.10;99.90
14411;DHT22;7290;50.854;4.354;2022-07-23T01:45:58;19.20;99.90
14411;DHT22;7290;50.854;4.354;2022-07-23T01:48:24;19.20;99.90
14411;DHT22;7290;50.854;4.354;2022-07-23T01:50:50;19.00;99.90
14411;DHT22;7290;50.854;4.354;2022-07-23T01:53:17;18.90;99.90
14411;DHT22;7290;50.854;4.354;2022-07-23T01:55:43;19.00;99.90
14411;DHT22;7290;50.854;4.354;2022-07-23T01:58:10;19.00;99.90
14411;DHT22;7290;50.854;4.354;2022-07-23T02:00:36;18.80;99.90
14411;DHT22;7290;50.854;4.354;2022-07-23T02:03:02;18.80;99.90
14411;DHT22;7290;50.854;4.354;2022-07-23T02:05:29;18.80;99.90
14411;DHT22;7290;50.854;4.354;2022-07-23T02:07:55;18.90;99.90
14411;DHT22;7290;50.854;4.354;2022-07-23T02:10:21;18.90;99.90
14411;DHT22;7290;50.854;4.354;2022-07-23T02:12:47;18.90;99.90
14411;DHT22;7290;50.854;4.354;2022-07-23T02:15:14;19.00;99.90
14411;DHT22;7290;50.854;4.354;2022-07-23T02:17:40;19.10;99.90
14411;DHT22;7290;50.854;4.354;2022-07-23T02:20:08;19.10;99.90
14411;DHT22;7290;50.854;4.354;2022-07-23T02:22:35;19.00;99.90
14411;DHT22;7290;50.854;4.354;2022-07-23T02:25:01;18.90;99.90
14411;DHT22;7290;50.854;4.354;2022-07-23T02:27:27;18.90;99.90
14411;DHT22;7290;50.854;4.354;2022-07-23T02:29:53;18.70;99.90
14411;DHT22;7290;50.854;4.354;2022-07-23T02:32:20;18.70;99.90
14411;DHT22;7290;50.854;4.354;2022-07-23T02:34:46;18.50;99.90
14411;DHT22;7290;50.854;4.354;2022-07-23T02:37:12;18.50;99.90
14411;DHT22;7290;50.854;4.354;2022-07-23T02:39:39;18.50;99.90
14411;DHT22;7290;50.854;4.354;2022-07-23T02:42:05;18.30;99.90
14411;DHT22;7290;50.854;4.354;2022-07-23T02:44:31;18.30;99.90
14411;DHT22;7290;50.854;4.354;2022-07-23T02:46:57;18.40;99.90
14411;DHT22;7290;50.854;4.354;2022-07-23T02:49:24;18.50;99.90
14411;DHT22;7290;50.854;4.354;2022-07-23T02:51:50;18.60;99.90
14411;DHT22;7290;50.854;4.354;2022-07-23T02:54:16;18.70;99.90
14411;DHT22;7290;50.854;4.354;2022-07-23T02:56:42;18.60;99.90
14411;DHT22;7290;50.854;4.354;2022-07-23T02:59:08;18.70;99.90
14411;DHT22;7290;50.854;4.354;2022-07-23T03:01:35;18.70;99.90
14411;DHT22;7290;50.854;4.354;2022-07-23T03:04:01;18.70;99.90
14411;DHT22;7290;50.854;4.354;2022-07-23T03:06:27;18.80;99.90
14411;DHT22;7290;50.854;4.354;2022-07-23T03:08:53;18.80;99.90
14411;DHT22;7290;50.854;4.354;2022-07-23T03:11:19;18.80;99.90
14411;DHT22;7290;50.854;4.354;2022-07-23T03:13:45;19.00;99.90
14411;DHT22;7290;50.854;4.354;2022-07-23T03:16:11;19.00;99.90
14411;DHT22;7290;50.854;4.354;2022-07-23T03:18:37;18.90;99.90
14411;DHT22;7290;50.854;4.354;2022-07-23T03:21:03;18.90;99.90
14411;DHT22;7290;50.854;4.354;2022-07-23T03:23:29;18.80;99.90
14411;DHT22;7290;50.854;4.354;2022-07-23T03:25:57;18.60;99.90
14411;DHT22;7290;50.854;4.354;2022-07-23T03:28:23;18.50;99.90
14411;DHT22;7290;50.854;4.354;2022-07-23T03:30:49;18.40;99.90
14411;DHT22;7290;50.854;4.354;2022-07-23T03:33:15;18.50;99.90
14411;DHT22;7290;50.854;4.354;2022-07-23T03:35:41;18.40;99.90
14411;DHT22;7290;50.854;4.354;2022-07-23T03:38:07;18.50;99.90
14411;DHT22;7290;50.854;4.354;2022-07-23T03:40:34;18.60;99.90
14411;DHT22;7290;50.854;4.354;2022-07-23T03:43:00;18.70;99.90
14411;DHT22;7290;50.854;4.354;2022-07-23T03:45:26;18.70;99.90
14411;DHT22;7290;50.854;4.354;2022-07-23T03:47:52;18.60;99.90
14411;DHT22;7290;50.854;4.354;2022-07-23T03:50:18;18.60;99.90
14411;DHT22;7290;50.854;4.354;2022-07-23T03:52:44;18.70;99.90
14411;DHT22;7290;50.854;4.354;2022-07-23T03:55:10;18.60;99.90
14411;DHT22;7290;50.854;4.354;2022-07-23T03:57:37;18.70;99.90
14411;DHT22;7290;50.854;4.354;2022-07-23T04:00:04;18.80;99.90
14411;DHT22;7290;50.854;4.354;2022-07-23T04:02:30;18.70;99.90
14411;DHT22;7290;50.854;4.354;2022-07-23T04:04:56;18.60;99.90
14411;DHT22;7290;50.854;4.354;2022-07-23T04:07:22;18.50;99.90
14411;DHT22;7290;50.854;4.354;2022-07-23T04:09:48;18.60;99.90
14411;DHT22;7290;50.854;4.354;2022-07-23T04:12:14;18.50;99.90
14411;DHT22;7290;50.854;4.354;2022-07-23T04:14:40;18.50;99.90
14411;DHT22;7290;50.854;4.354;2022-07-23T04:17:06;18.50;99.90
14411;DHT22;7290;50.854;4.354;2022-07-23T04:19:32;18.60;99.90
14411;DHT22;7290;50.854;4.354;2022-07-23T04:21:59;18.60;99.90
14411;DHT22;7290;50.854;4.354;2022-07-23T04:24:25;18.70;99.90
14411;DHT22;7290;50.854;4.354;2022-07-23T04:26:51;18.80;99.90
14411;DHT22;7290;50.854;4.354;2022-07-23T04:29:18;18.80;99.90
14411;DHT22;7290;50.854;4.354;2022-07-23T04:31:45;18.90;99.90
14411;DHT22;7290;50.854;4.354;2022-07-23T04:34:11;18.70;99.90
14411;DHT22;7290;50.854;4.354;2022-07-23T04:36:37;18.70;99.90
14411;DHT22;7290;50.854;4.354;2022-07-23T04:39:03;18.80;99.90
14411;DHT22;7290;50.854;4.354;2022-07-23T04:41:29;18.80;99.90
14411;DHT22;7290;50.854;4.354;2022-07-23T04:43:55;18.80;99.90
14411;DHT22;7290;50.854;4.354;2022-07-23T04:46:20;18.80;99.90
14411;DHT22;7290;50.854;4.354;2022-07-23T04:48:47;18.70;99.90
14411;DHT22;7290;50.854;4.354;2022-07-23T04:51:13;18.70;99.90
14411;DHT22;7290;50.854;4.354;2022-07-23T04:53:39;18.80;99.90
14411;DHT22;7290;50.854;4.354;2022-07-23T04:56:05;18.80;99.90
14411;DHT22;7290;50.854;4.354;2022-07-23T04:58:31;18.80;99.90
14411;DHT22;7290;50.854;4.354;2022-07-23T05:00:57;18.90;99.90
14411;DHT22;7290;50.854;4.354;2022-07-23T05:03:23;18.90;99.90
14411;DHT22;7290;50.854;4.354;2022-07-23T05:05:50;19.00;99.90
14411;DHT22;7290;50.854;4.354;2022-07-23T05:08:16;19.30;99.90
14411;DHT22;7290;50.854;4.354;2022-07-23T05:10:42;19.50;99.90
14411;DHT22;7290;50.854;4.354;2022-07-23T05:13:08;19.70;99.90
14411;DHT22;7290;50.854;4.354;2022-07-23T05:15:34;19.70;99.90
14411;DHT22;7290;50.854;4.354;2022-07-23T05:18:00;19.70;99.90
14411;DHT22;7290;50.854;4.354;2022-07-23T05:20:26;19.80;99.90
14411;DHT22;7290;50.854;4.354;2022-07-23T05:22:53;20.00;99.90
14411;DHT22;7290;50.854;4.354;2022-07-23T05:25:19;20.20;99.90
14411;DHT22;7290;50.854;4.354;2022-07-23T05:27:45;20.20;99.90
14411;DHT22;7290;50.854;4.354;2022-07-23T05:30:11;20.40;99.90
14411;DHT22;7290;50.854;4.354;2022-07-23T05:32:37;20.50;99.90
14411;DHT22;7290;50.854;4.354;2022-07-23T05:35:04;19.80;99.90
14411;DHT22;7290;50.854;4.354;2022-07-23T05:37:30;20.10;99.90
14411;DHT22;7290;50.854;4.354;2022-07-23T05:40:00;20.20;99.90
14411;DHT22;7290;50.854;4.354;2022-07-23T05:42:26;20.60;99.90
14411;DHT22;7290;50.854;4.354;2022-07-23T05:44:52;20.30;99.90
14411;DHT22;7290;50.854;4.354;2022-07-23T05:47:18;20.10;99.90
14411;DHT22;7290;50.854;4.354;2022-07-23T05:49:44;20.30;99.90
14411;DHT22;7290;50.854;4.354;2022-07-23T05:52:10;20.60;99.90
14411;DHT22;7290;50.854;4.354;2022-07-23T05:54:36;21.10;99.90
14411;DHT22;7290;50.854;4.354;2022-07-23T05:57:03;21.60;99.90
14411;DHT22;7290;50.854;4.354;2022-07-23T05:59:29;21.20;99.90
14411;DHT22;7290;50.854;4.354;2022-07-23T06:01:56;22.80;99.90
14411;DHT22;7290;50.854;4.354;2022-07-23T06:04:22;24.00;99.90
14411;DHT22;7290;50.854;4.354;2022-07-23T06:06:48;25.50;99.90
14411;DHT22;7290;50.854;4.354;2022-07-23T06:09:17;26.60;99.90
14411;DHT22;7290;50.854;4.354;2022-07-23T06:11:43;26.90;99.90
14411;DHT22;7290;50.854;4.354;2022-07-23T06:14:10;27.50;99.90
14411;DHT22;7290;50.854;4.354;2022-07-23T06:16:36;28.10;99.90
14411;DHT22;7290;50.854;4.354;2022-07-23T06:19:02;28.20;99.20
14411;DHT22;7290;50.854;4.354;2022-07-23T06:21:28;28.90;98.50
14411;DHT22;7290;50.854;4.354;2022-07-23T06:23:54;29.50;96.90
14411;DHT22;7290;50.854;4.354;2022-07-23T06:26:20;29.70;96.30
14411;DHT22;7290;50.854;4.354;2022-07-23T06:28:46;28.80;96.60
14411;DHT22;7290;50.854;4.354;2022-07-23T06:31:14;29.60;96.20
14411;DHT22;7290;50.854;4.354;2022-07-23T06:33:40;29.50;95.40
14411;DHT22;7290;50.854;4.354;2022-07-23T06:36:06;28.90;96.10
14411;DHT22;7290;50.854;4.354;2022-07-23T06:38:32;29.60;95.70
14411;DHT22;7290;50.854;4.354;2022-07-23T06:40:58;30.70;94.30
14411;DHT22;7290;50.854;4.354;2022-07-23T06:43:24;31.00;93.30
14411;DHT22;7290;50.854;4.354;2022-07-23T06:45:51;31.30;92.80
14411;DHT22;7290;50.854;4.354;2022-07-23T06:48:19;31.50;92.50
14411;DHT22;7290;50.854;4.354;2022-07-23T06:50:45;32.00;91.80
14411;DHT22;7290;50.854;4.354;2022-07-23T06:53:12;31.90;92.10
14411;DHT22;7290;50.854;4.354;2022-07-23T06:55:38;31.90;91.20
14411;DHT22;7290;50.854;4.354;2022-07-23T06:58:05;32.70;90.60
14411;DHT22;7290;50.854;4.354;2022-07-23T07:00:31;33.00;90.00
14411;DHT22;7290;50.854;4.354;2022-07-23T07:02:57;33.20;89.20
14411;DHT22;7290;50.854;4.354;2022-07-23T07:05:24;33.70;88.30
14411;DHT22;7290;50.854;4.354;2022-07-23T07:07:53;34.00;87.70
14411;DHT22;7290;50.854;4.354;2022-07-23T07:10:19;31.60;90.40
14411;DHT22;7290;50.854;4.354;2022-07-23T07:12:44;32.40;90.30
14411;DHT22;7290;50.854;4.354;2022-07-23T07:15:10;33.30;88.80
14411;DHT22;7290;50.854;4.354;2022-07-23T07:17:37;34.00;86.50
14411;DHT22;7290;50.854;4.354;2022-07-23T07:20:03;34.10;86.00
14411;DHT22;7290;50.854;4.354;2022-07-23T07:22:31;34.30;85.50
14411;DHT22;7290;50.854;4.354;2022-07-23T07:24:57;34.30;85.20
14411;DHT22;7290;50.854;4.354;2022-07-23T07:27:23;34.50;84.80
14411;DHT22;7290;50.854;4.354;2022-07-23T07:29:49;34.70;84.50
14411;DHT22;7290;50.854;4.354;2022-07-23T07:32:15;35.10;83.30
14411;DHT22;7290;50.854;4.354;2022-07-23T07:34:41;35.50;82.50
14411;DHT22;7290;50.854;4.354;2022-07-23T07:37:07;35.60;81.50
14411;DHT22;7290;50.854;4.354;2022-07-23T07:39:33;36.00;80.80
14411;DHT22;7290;50.854;4.354;2022-07-23T07:41:59;35.80;80.10
14411;DHT22;7290;50.854;4.354;2022-07-23T07:44:25;36.30;79.40
14411;DHT22;7290;50.854;4.354;2022-07-23T07:46:51;36.30;78.50
14411;DHT22;7290;50.854;4.354;2022-07-23T07:49:18;36.00;78.80
14411;DHT22;7290;50.854;4.354;2022-07-23T07:51:44;35.70;79.50
14411;DHT22;7290;50.854;4.354;2022-07-23T07:54:10;35.60;79.10
14411;DHT22;7290;50.854;4.354;2022-07-23T07:56:37;35.60;79.40
14411;DHT22;7290;50.854;4.354;2022-07-23T07:59:03;35.80;79.10
14411;DHT22;7290;50.854;4.354;2022-07-23T08:01:30;35.70;79.20
14411;DHT22;7290;50.854;4.354;2022-07-23T08:03:56;35.90;78.50
14411;DHT22;7290;50.854;4.354;2022-07-23T08:06:22;36.30;77.60
14411;DHT22;7290;50.854;4.354;2022-07-23T08:08:48;36.50;76.70
14411;DHT22;7290;50.854;4.354;2022-07-23T08:11:14;36.70;76.70
14411;DHT22;7290;50.854;4.354;2022-07-23T08:13:41;36.40;77.30
14411;DHT22;7290;50.854;4.354;2022-07-23T08:16:09;36.00;77.90
14411;DHT22;7290;50.854;4.354;2022-07-23T08:18:35;35.60;78.50
14411;DHT22;7290;50.854;4.354;2022-07-23T08:21:01;36.50;77.10
14411;DHT22;7290;50.854;4.354;2022-07-23T08:23:29;36.50;76.40
14411;DHT22;7290;50.854;4.354;2022-07-23T08:25:55;35.80;77.40
14411;DHT22;7290;50.854;4.354;2022-07-23T08:28:25;36.20;76.50
14411;DHT22;7290;50.854;4.354;2022-07-23T08:30:51;36.90;75.70
14411;DHT22;7290;50.854;4.354;2022-07-23T08:33:17;37.70;74.40
14411;DHT22;7290;50.854;4.354;2022-07-23T08:35:44;38.20;72.90
14411;DHT22;7290;50.854;4.354;2022-07-23T08:38:12;38.40;72.10
14411;DHT22;7290;50.854;4.354;2022-07-23T08:40:39;38.90;71.40
14411;DHT22;7290;50.854;4.354;2022-07-23T08:43:05;38.80;70.80
14411;DHT22;7290;50.854;4.354;2022-07-23T08:45:32;38.00;71.60
14411;DHT22;7290;50.854;4.354;2022-07-23T08:48:02;38.60;70.80
14411;DHT22;7290;50.854;4.354;2022-07-23T08:50:28;38.70;69.90
14411;DHT22;7290;50.854;4.354;2022-07-23T08:52:54;38.10;70.50
14411;DHT22;7290;50.854;4.354;2022-07-23T08:55:22;38.00;70.60
14411;DHT22;7290;50.854;4.354;2022-07-23T08:57:49;38.40;70.20
14411;DHT22;7290;50.854;4.354;2022-07-23T09:00:16;37.80;70.40
14411;DHT22;7290;50.854;4.354;2022-07-23T09:02:42;37.70;70.40
14411;DHT22;7290;50.854;4.354;2022-07-23T09:05:09;38.30;69.90
14411;DHT22;7290;50.854;4.354;2022-07-23T09:07:36;38.90;69.30
14411;DHT22;7290;50.854;4.354;2022-07-23T09:10:07;39.70;67.70
14411;DHT22;7290;50.854;4.354;2022-07-23T09:12:34;40.20;66.00
14411;DHT22;7290;50.854;4.354;2022-07-23T09:15:04;39.80;65.30
14411;DHT22;7290;50.854;4.354;2022-07-23T09:17:32;39.60;65.60
14411;DHT22;7290;50.854;4.354;2022-07-23T09:20:07;38.90;66.70
14411;DHT22;7290;50.854;4.354;2022-07-23T09:22:34;38.60;66.70
14411;DHT22;7290;50.854;4.354;2022-07-23T09:25:14;38.80;65.90
14411;DHT22;7290;50.854;4.354;2022-07-23T09:27:49;37.60;67.30
14411;DHT22;7290;50.854;4.354;2022-07-23T09:30:18;36.90;68.70
14411;DHT22;7290;50.854;4.354;2022-07-23T09:35:29;37.90;67.80
14411;DHT22;7290;50.854;4.354;2022-07-23T09:38:09;37.80;67.20
14411;DHT22;7290;50.854;4.354;2022-07-23T09:40:35;38.00;67.40
14411;DHT22;7290;50.854;4.354;2022-07-23T09:43:02;37.90;67.40
14411;DHT22;7290;50.854;4.354;2022-07-23T09:45:28;37.90;67.10
14411;DHT22;7290;50.854;4.354;2022-07-23T09:47:56;37.50;67.90
14411;DHT22;7290;50.854;4.354;2022-07-23T09:50:35;38.30;66.40
14411;DHT22;7290;50.854;4.354;2022-07-23T09:53:02;38.80;65.10
14411;DHT22;7290;50.854;4.354;2022-07-23T09:55:31;38.10;66.00
14411;DHT22;7290;50.854;4.354;2022-07-23T09:58:00;37.50;66.70
14411;DHT22;7290;50.854;4.354;2022-07-23T10:00:27;37.30;67.00
14411;DHT22;7290;50.854;4.354;2022-07-23T10:02:54;37.60;66.50
14411;DHT22;7290;50.854;4.354;2022-07-23T10:05:21;38.20;65.10
14411;DHT22;7290;50.854;4.354;2022-07-23T10:07:49;37.90;65.70
14411;DHT22;7290;50.854;4.354;2022-07-23T10:10:16;38.40;64.50
14411;DHT22;7290;50.854;4.354;2022-07-23T10:12:44;38.60;64.90
14411;DHT22;7290;50.854;4.354;2022-07-23T10:15:29;38.30;63.90
14411;DHT22;7290;50.854;4.354;2022-07-23T10:17:56;39.20;63.20
14411;DHT22;7290;50.854;4.354;2022-07-23T10:20:22;37.90;63.80
14411;DHT22;7290;50.854;4.354;2022-07-23T10:22:50;35.80;68.50
14411;DHT22;7290;50.854;4.354;2022-07-23T10:25:21;35.40;67.60
14411;DHT22;7290;50.854;4.354;2022-07-23T10:27:56;34.10;70.50
14411;DHT22;7290;50.854;4.354;2022-07-23T10:30:26;33.70;72.10
14411;DHT22;7290;50.854;4.354;2022-07-23T10:32:56;33.20;73.40
14411;DHT22;7290;50.854;4.354;2022-07-23T10:35:26;33.90;71.90
14411;DHT22;7290;50.854;4.354;2022-07-23T10:37:55;34.90;70.60
14411;DHT22;7290;50.854;4.354;2022-07-23T10:40:22;37.00;67.00
14411;DHT22;7290;50.854;4.354;2022-07-23T10:42:49;38.00;65.10
14411;DHT22;7290;50.854;4.354;2022-07-23T10:45:36;38.60;63.20
14411;DHT22;7290;50.854;4.354;2022-07-23T10:48:11;39.00;63.60
14411;DHT22;7290;50.854;4.354;2022-07-23T10:50:38;38.90;62.70
14411;DHT22;7290;50.854;4.354;2022-07-23T10:53:08;39.30;62.10
14411;DHT22;7290;50.854;4.354;2022-07-23T10:55:41;39.00;61.90
14411;DHT22;7290;50.854;4.354;2022-07-23T10:58:08;39.30;61.40
14411;DHT22;7290;50.854;4.354;2022-07-23T11:00:35;39.50;61.40
14411;DHT22;7290;50.854;4.354;2022-07-23T11:03:02;39.20;61.90
14411;DHT22;7290;50.854;4.354;2022-07-23T11:05:41;38.20;62.30
14411;DHT22;7290;50.854;4.354;2022-07-23T11:10:53;38.30;62.50
14411;DHT22;7290;50.854;4.354;2022-07-23T11:13:30;38.30;62.40
14411;DHT22;7290;50.854;4.354;2022-07-23T11:16:05;38.20;62.80
14411;DHT22;7290;50.854;4.354;2022-07-23T11:18:57;37.50;63.40
14411;DHT22;7290;50.854;4.354;2022-07-23T11:24:09;36.60;64.40
14411;DHT22;7290;50.854;4.354;2022-07-23T11:26:43;37.60;63.80
14411;DHT22;7290;50.854;4.354;2022-07-23T11:31:52;36.00;65.20
14411;DHT22;7290;50.854;4.354;2022-07-23T11:34:30;35.30;67.10
14411;DHT22;7290;50.854;4.354;2022-07-23T11:36:57;35.50;66.70
14411;DHT22;7290;50.854;4.354;2022-07-23T11:39:24;36.00;66.50
14411;DHT22;7290;50.854;4.354;2022-07-23T11:41:54;35.60;66.50
14411;DHT22;7290;50.854;4.354;2022-07-23T11:44:26;35.50;67.20
14411;DHT22;7290;50.854;4.354;2022-07-23T11:46:56;35.10;67.50
14411;DHT22;7290;50.854;4.354;2022-07-23T11:49:23;35.30;67.80
14411;DHT22;7290;50.854;4.354;2022-07-23T11:52:01;35.40;67.20
14411;DHT22;7290;50.854;4.354;2022-07-23T11:54:28;35.30;67.30
14411;DHT22;7290;50.854;4.354;2022-07-23T11:56:55;35.20;67.70
14411;DHT22;7290;50.854;4.354;2022-07-23T11:59:21;35.10;67.40
14411;DHT22;7290;50.854;4.354;2022-07-23T12:01:56;34.70;69.10
14411;DHT22;7290;50.854;4.354;2022-07-23T12:04:23;34.30;68.60
14411;DHT22;7290;50.854;4.354;2022-07-23T12:06:50;33.50;70.50
14411;DHT22;7290;50.854;4.354;2022-07-23T12:09:16;33.80;70.20
14411;DHT22;7290;50.854;4.354;2022-07-23T12:11:55;34.10;69.50
14411;DHT22;7290;50.854;4.354;2022-07-23T12:14:21;33.80;70.40
14411;DHT22;7290;50.854;4.354;2022-07-23T12:16:47;33.80;70.80
14411;DHT22;7290;50.854;4.354;2022-07-23T12:19:33;33.60;70.80
14411;DHT22;7290;50.854;4.354;2022-07-23T12:21:59;33.80;70.30
14411;DHT22;7290;50.854;4.354;2022-07-23T12:24:25;33.20;71.30
14411;DHT22;7290;50.854;4.354;2022-07-23T12:27:10;32.80;72.50
14411;DHT22;7290;50.854;4.354;2022-07-23T12:29:36;33.00;71.80
14411;DHT22;7290;50.854;4.354;2022-07-23T12:32:16;32.60;72.20
14411;DHT22;7290;50.854;4.354;2022-07-23T12:34:43;32.20;73.10
14411;DHT22;7290;50.854;4.354;2022-07-23T12:37:24;32.00;73.40
14411;DHT22;7290;50.854;4.354;2022-07-23T12:39:50;31.90;74.00
14411;DHT22;7290;50.854;4.354;2022-07-23T12:42:16;31.80;73.80
14411;DHT22;7290;50.854;4.354;2022-07-23T12:47:23;29.80;77.90
14411;DHT22;7290;50.854;4.354;2022-07-23T12:49:50;29.80;78.20
14411;DHT22;7290;50.854;4.354;2022-07-23T12:52:17;29.50;78.00
14411;DHT22;7290;50.854;4.354;2022-07-23T12:54:44;29.50;78.40
14411;DHT22;7290;50.854;4.354;2022-07-23T12:57:10;29.80;78.40
14411;DHT22;7290;50.854;4.354;2022-07-23T12:59:36;30.10;77.60
14411;DHT22;7290;50.854;4.354;2022-07-23T13:02:03;29.70;78.50
14411;DHT22;7290;50.854;4.354;2022-07-23T13:04:29;29.00;79.80
14411;DHT22;7290;50.854;4.354;2022-07-23T13:06:58;29.40;79.30
14411;DHT22;7290;50.854;4.354;2022-07-23T13:09:26;30.00;78.20
14411;DHT22;7290;50.854;4.354;2022-07-23T13:11:53;29.80;77.90
14411;DHT22;7290;50.854;4.354;2022-07-23T13:14:20;29.90;77.80
14411;DHT22;7290;50.854;4.354;2022-07-23T13:16:47;30.30;77.30
14411;DHT22;7290;50.854;4.354;2022-07-23T13:19:13;30.70;76.70
14411;DHT22;7290;50.854;4.354;2022-07-23T13:21:39;30.50;76.50
14411;DHT22;7290;50.854;4.354;2022-07-23T13:24:07;30.60;77.00
14411;DHT22;7290;50.854;4.354;2022-07-23T13:26:33;30.40;77.10
14411;DHT22;7290;50.854;4.354;2022-07-23T13:28:59;30.80;76.60
14411;DHT22;7290;50.854;4.354;2022-07-23T13:31:25;31.00;75.90
14411;DHT22;7290;50.854;4.354;2022-07-23T13:33:52;30.70;76.90
14411;DHT22;7290;50.854;4.354;2022-07-23T13:36:18;30.60;77.30
14411;DHT22;7290;50.854;4.354;2022-07-23T13:38:44;30.80;77.40
14411;DHT22;7290;50.854;4.354;2022-07-23T13:41:10;30.70;77.80
14411;DHT22;7290;50.854;4.354;2022-07-23T13:43:36;30.80;77.70
14411;DHT22;7290;50.854;4.354;2022-07-23T13:46:03;30.50;77.80
14411;DHT22;7290;50.854;4.354;2022-07-23T13:48:29;30.50;77.90
14411;DHT22;7290;50.854;4.354;2022-07-23T13:50:55;30.60;77.90
14411;DHT22;7290;50.854;4.354;2022-07-23T13:53:22;30.50;77.70
14411;DHT22;7290;50.854;4.354;2022-07-23T13:55:49;30.50;78.10
14411;DHT22;7290;50.854;4.354;2022-07-23T13:58:16;30.30;78.90
14411;DHT22;7290;50.854;4.354;2022-07-23T14:00:42;30.60;78.80
14411;DHT22;7290;50.854;4.354;2022-07-23T14:03:09;30.40;79.00
14411;DHT22;7290;50.854;4.354;2022-07-23T14:05:35;30.70;79.10
14411;DHT22;7290;50.854;4.354;2022-07-23T14:08:03;31.00;78.50
14411;DHT22;7290;50.854;4.354;2022-07-23T14:10:29;30.80;78.60
14411;DHT22;7290;50.854;4.354;2022-07-23T14:12:56;30.40;79.20
14411;DHT22;7290;50.854;4.354;2022-07-23T14:15:24;29.90;80.50
14411;DHT22;7290;50.854;4.354;2022-07-23T14:17:53;29.60;81.40
14411;DHT22;7290;50.854;4.354;2022-07-23T14:20:19;29.80;80.80
14411;DHT22;7290;50.854;4.354;2022-07-23T14:22:45;30.10;80.60
14411;DHT22;7290;50.854;4.354;2022-07-23T14:25:14;30.20;80.70
14411;DHT22;7290;50.854;4.354;2022-07-23T14:27:41;30.40;80.30
14411;DHT22;7290;50.854;4.354;2022-07-23T14:30:08;30.30;80.20
14411;DHT22;7290;50.854;4.354;2022-07-23T14:32:35;30.30;79.80
14411;DHT22;7290;50.854;4.354;2022-07-23T14:35:03;30.20;79.80
14411;DHT22;7290;50.854;4.354;2022-07-23T14:37:34;30.30;79.20
14411;DHT22;7290;50.854;4.354;2022-07-23T14:40:00;30.40;78.90
14411;DHT22;7290;50.854;4.354;2022-07-23T14:42:26;30.70;78.60
14411;DHT22;7290;50.854;4.354;2022-07-23T14:44:52;30.70;77.80
14411;DHT22;7290;50.854;4.354;2022-07-23T14:47:18;30.40;78.80
14411;DHT22;7290;50.854;4.354;2022-07-23T14:49:48;30.10;80.40
14411;DHT22;7290;50.854;4.354;2022-07-23T14:52:14;30.10;80.10
14411;DHT22;7290;50.854;4.354;2022-07-23T14:54:40;30.40;79.50
14411;DHT22;7290;50.854;4.354;2022-07-23T14:57:07;30.30;79.20
14411;DHT22;7290;50.854;4.354;2022-07-23T14:59:34;30.00;79.70
14411;DHT22;7290;50.854;4.354;2022-07-23T15:02:00;30.00;80.00
14411;DHT22;7290;50.854;4.354;2022-07-23T15:04:26;30.10;79.60
14411;DHT22;7290;50.854;4.354;2022-07-23T15:06:55;30.70;79.20
14411;DHT22;7290;50.854;4.354;2022-07-23T15:09:21;31.00;78.30
14411;DHT22;7290;50.854;4.354;2022-07-23T15:11:47;31.20;77.90
14411;DHT22;7290;50.854;4.354;2022-07-23T15:14:13;31.00;78.10
14411;DHT22;7290;50.854;4.354;2022-07-23T15:16:39;30.70;78.80
14411;DHT22;7290;50.854;4.354;2022-07-23T15:19:08;30.60;79.20
14411;DHT22;7290;50.854;4.354;2022-07-23T15:21:34;30.40;79.00
14411;DHT22;7290;50.854;4.354;2022-07-23T15:24:01;30.30;79.50
14411;DHT22;7290;50.854;4.354;2022-07-23T15:26:27;29.80;79.10
14411;DHT22;7290;50.854;4.354;2022-07-23T15:28:53;29.80;79.90
14411;DHT22;7290;50.854;4.354;2022-07-23T15:31:21;29.80;80.00
14411;DHT22;7290;50.854;4.354;2022-07-23T15:33:47;30.10;79.80
14411;DHT22;7290;50.854;4.354;2022-07-23T15:36:13;30.30;78.50
14411;DHT22;7290;50.854;4.354;2022-07-23T15:38:42;30.30;78.70
14411;DHT22;7290;50.854;4.354;2022-07-23T15:41:09;29.90;79.70
14411;DHT22;7290;50.854;4.354;2022-07-23T15:43:37;29.80;80.50
14411;DHT22;7290;50.854;4.354;2022-07-23T15:46:03;29.80;80.80
14411;DHT22;7290;50.854;4.354;2022-07-23T15:48:30;29.50;81.00
14411;DHT22;7290;50.854;4.354;2022-07-23T15:50:56;29.40;81.80
14411;DHT22;7290;50.854;4.354;2022-07-23T15:53:23;29.60;81.40
14411;DHT22;7290;50.854;4.354;2022-07-23T15:55:50;29.80;81.10
14411;DHT22;7290;50.854;4.354;2022-07-23T15:58:17;30.10;80.70